Time;durP1;ratioP1;P1;durP2;ratioP2;P2;SDS_P1;SDS_P2;PMS_P1;PMS_P2;Temp;Humidity;BMP_temperature;BMP_pressure;BME280_temperature;BME280_humidity;BME280_pressure;Samples;Min_cycle;Max_cycle;Signal;HPM_P1;HPM_P2
2021/10/03 00:01:56;;;;;;;0.40;0.40;;;;;;;1.87;93.71;101527.09;5029344;28;20458;-73
2021/10/03 00:04:25;;;;;;;0.50;0.50;;;;;;;1.80;92.47;101525.53;5012339;28;20053;-73
2021/10/03 00:06:52;;;;;;;0.50;0.50;;;;;;;1.73;92.01;101533.78;5029412;28;20054;-72
2021/10/03 00:09:18;;;;;;;0.50;0.50;;;;;;;1.69;92.43;101522.34;5012674;28;20085;-71
2021/10/03 00:11:45;;;;;;;0.50;0.50;;;;;;;1.66;91.94;101523.31;4996434;28;20134;-72
2021/10/03 00:14:12;;;;;;;0.50;0.50;;;;;;;1.63;92.02;101528.72;5012206;28;20061;-72
2021/10/03 00:16:41;;;;;;;0.50;0.50;;;;;;;1.60;91.89;101526.16;5028964;28;20057;-73
2021/10/03 00:19:07;;;;;;;0.40;0.40;;;;;;;1.58;92.31;101525.34;5030280;28;20398;-72
2021/10/03 00:21:33;;;;;;;0.50;0.50;;;;;;;1.55;92.11;101520.09;5029302;28;20111;-73
2021/10/03 00:23:58;;;;;;;0.40;0.40;;;;;;;1.51;91.96;101518.47;5012036;28;20053;-72
2021/10/03 00:26:24;;;;;;;0.50;0.50;;;;;;;1.48;91.84;101523.88;4995858;28;20050;-70
2021/10/03 00:28:50;;;;;;;0.50;0.50;;;;;;;1.42;91.94;101516.06;5012182;28;20049;-72
2021/10/03 00:31:16;;;;;;;0.40;0.40;;;;;;;1.41;92.42;101522.31;5012140;28;20132;-71
2021/10/03 00:33:42;;;;;;;0.50;0.50;;;;;;;1.35;91.92;101511.84;5028532;28;20063;-72
2021/10/03 00:36:08;;;;;;;0.50;0.50;;;;;;;1.30;92.34;101519.13;5012280;28;20133;-72
2021/10/03 00:38:33;;;;;;;0.50;0.50;;;;;;;1.28;92.11;101520.94;5030135;28;20064;-72
2021/10/03 00:40:59;;;;;;;0.50;0.50;;;;;;;1.26;92.32;101522.78;5029772;28;20141;-74
2021/10/03 00:43:26;;;;;;;0.50;0.50;;;;;;;1.23;91.96;101513.09;5011980;28;20058;-73
2021/10/03 00:45:52;;;;;;;0.50;0.50;;;;;;;1.23;92.69;101522.88;5045307;28;20080;-71
2021/10/03 00:48:18;;;;;;;0.50;0.50;;;;;;;1.12;92.24;101505.41;5012178;28;20058;-73
2021/10/03 00:50:45;;;;;;;0.50;0.50;;;;;;;1.14;92.48;101521.38;5030336;28;20060;-72
2021/10/03 00:53:12;;;;;;;0.50;0.50;;;;;;;1.10;93.07;101531.25;5011956;28;20413;-73
2021/10/03 00:55:38;;;;;;;0.50;0.50;;;;;;;1.09;92.42;101515.28;5028849;28;20076;-72
2021/10/03 00:58:04;;;;;;;0.50;0.50;;;;;;;1.06;92.54;101528.69;5029720;28;20128;-72
2021/10/03 01:00:31;;;;;;;0.50;0.50;;;;;;;1.05;92.63;101530.47;5012298;28;20092;-71
2021/10/03 01:02:58;;;;;;;0.50;0.50;;;;;;;1.02;92.47;101525.22;5030017;28;20042;-72
2021/10/03 01:05:26;;;;;;;0.50;0.50;;;;;;;1.02;92.36;101519.03;5030979;28;20099;-71
2021/10/03 01:07:52;;;;;;;0.50;0.50;;;;;;;1.00;92.44;101513.78;5031868;28;20571;-72
2021/10/03 01:10:22;;;;;;;0.50;0.50;;;;;;;0.98;91.99;101512.94;5032170;28;20068;-72
2021/10/03 01:12:53;;;;;;;0.50;0.50;;;;;;;0.97;92.24;101519.19;5015707;28;20152;-71
2021/10/03 01:15:19;;;;;;;0.50;0.50;;;;;;;0.92;91.93;101514.00;5033064;28;20063;-71
2021/10/03 01:17:44;;;;;;;0.50;0.50;;;;;;;0.89;92.47;101507.88;5032922;28;20049;-71
2021/10/03 01:20:10;;;;;;;0.50;0.50;;;;;;;0.86;92.90;101514.16;4998388;28;20057;-70
2021/10/03 01:22:37;;;;;;;0.50;0.50;;;;;;;0.83;92.98;101513.38;5031721;28;20117;-71
2021/10/03 01:25:05;;;;;;;0.50;0.50;;;;;;;0.82;92.53;101517.84;5033481;28;20191;-71
2021/10/03 01:27:31;;;;;;;0.50;0.50;;;;;;;0.80;92.86;101513.47;5033859;28;20092;-72
2021/10/03 01:29:56;;;;;;;0.50;0.50;;;;;;;0.75;93.24;101505.59;5034158;28;20065;-72
2021/10/03 01:32:22;;;;;;;0.50;0.50;;;;;;;0.75;93.42;101515.38;5034975;28;20193;-72
2021/10/03 01:34:48;;;;;;;0.50;0.50;;;;;;;0.71;93.74;101510.16;5034726;28;20096;-70
2021/10/03 01:37:14;;;;;;;0.50;0.50;;;;;;;0.71;94.27;101515.47;5017674;28;20045;-71
2021/10/03 01:39:40;;;;;;;0.50;0.50;;;;;;;0.69;94.55;101508.44;5017118;28;20494;-73
2021/10/03 01:42:06;;;;;;;0.50;0.50;;;;;;;0.66;93.65;101506.75;5034674;28;20045;-72
2021/10/03 01:44:33;;;;;;;0.50;0.50;;;;;;;0.64;93.90;101508.56;5016947;28;20538;-71
2021/10/03 01:46:58;;;;;;;0.50;0.50;;;;;;;0.63;94.11;101511.28;5016538;28;20088;-72
2021/10/03 01:49:24;;;;;;;0.82;0.60;;;;;;;0.61;94.49;101508.66;5018054;28;20564;-72
2021/10/03 01:51:50;;;;;;;0.60;0.60;;;;;;;0.65;95.15;101510.31;5016520;28;20475;-72
2021/10/03 01:54:17;;;;;;;0.50;0.50;;;;;;;0.64;95.06;101510.38;5034611;28;20049;-75
2021/10/03 01:56:43;;;;;;;0.60;0.60;;;;;;;0.63;95.22;101509.50;5035647;28;20042;-73
2021/10/03 01:59:08;;;;;;;0.60;0.60;;;;;;;0.65;94.79;101518.28;5016837;28;20417;-74
2021/10/03 02:01:44;;;;;;;0.50;0.50;;;;;;;0.63;93.76;101517.47;5034744;28;20064;-70
2021/10/03 02:04:20;;;;;;;0.55;0.55;;;;;;;0.67;94.33;101529.78;5034219;28;20065;-72
2021/10/03 02:06:49;;;;;;;0.60;0.60;;;;;;;0.65;94.63;101515.63;5032448;28;20412;-73
2021/10/03 02:09:17;;;;;;;0.50;0.50;;;;;;;0.68;95.11;101520.88;5033871;28;20403;-71
2021/10/03 02:11:47;;;;;;;0.50;0.50;;;;;;;0.67;94.35;101523.59;5032180;28;20096;-71
2021/10/03 02:14:14;;;;;;;0.60;0.60;;;;;;;0.66;95.32;101522.72;5014413;28;20075;-71
2021/10/03 02:16:40;;;;;;;0.50;0.50;;;;;;;0.66;95.45;101517.41;5030791;28;20052;-71
2021/10/03 02:19:06;;;;;;;0.50;0.50;;;;;;;0.67;95.58;101524.47;4997908;28;20133;-70
2021/10/03 02:21:33;;;;;;;0.50;0.50;;;;;;;0.65;94.61;101520.94;5032127;28;20049;-71
2021/10/03 02:23:58;;;;;;;0.50;0.50;;;;;;;0.65;94.54;101520.94;5030305;28;20053;-71
2021/10/03 02:26:24;;;;;;;0.50;0.50;;;;;;;0.64;94.46;101524.53;5030447;28;20058;-70
2021/10/03 02:28:50;;;;;;;0.50;0.50;;;;;;;0.57;94.21;101525.63;5030257;28;20085;-71
2021/10/03 02:31:16;;;;;;;0.52;0.52;;;;;;;0.58;94.67;101529.16;5030136;28;20053;-71
2021/10/03 02:33:45;;;;;;;0.50;0.50;;;;;;;0.58;94.26;101518.50;5013300;28;20401;-70
2021/10/03 02:36:12;;;;;;;0.50;0.50;;;;;;;0.58;94.71;101522.03;5029384;28;20046;-71
2021/10/03 02:38:39;;;;;;;0.50;0.50;;;;;;;0.61;94.17;101527.28;5012717;28;20069;-71
2021/10/03 02:41:07;;;;;;;0.50;0.50;;;;;;;0.64;93.93;101524.53;5013014;28;20072;-71
2021/10/03 02:43:35;;;;;;;0.50;0.50;;;;;;;0.69;95.38;101521.75;5030627;28;20065;-71
2021/10/03 02:46:01;;;;;;;0.50;0.50;;;;;;;0.72;95.57;101522.53;5012617;28;20077;-72
2021/10/03 02:48:28;;;;;;;0.50;0.50;;;;;;;0.69;94.93;101519.94;5013299;28;20164;-70
2021/10/03 02:50:55;;;;;;;0.50;0.50;;;;;;;0.67;95.34;101526.25;5030896;28;20061;-70
2021/10/03 02:53:22;;;;;;;0.50;0.50;;;;;;;0.64;95.26;101519.22;5030119;28;20108;-73
2021/10/03 02:55:48;;;;;;;0.50;0.50;;;;;;;0.63;95.29;101522.81;5013312;28;20472;-72
2021/10/03 02:58:14;;;;;;;0.50;0.50;;;;;;;0.63;95.49;101522.81;5029153;28;20050;-72
2021/10/03 03:00:42;;;;;;;0.50;0.50;;;;;;;0.64;95.62;101521.88;5013597;28;20053;-73
2021/10/03 03:03:08;;;;;;;0.50;0.50;;;;;;;0.68;95.92;101520.88;5031088;28;20437;-73
2021/10/03 03:05:34;;;;;;;0.50;0.50;;;;;;;0.75;96.54;101521.59;5031530;28;20106;-71
2021/10/03 03:08:01;;;;;;;0.50;0.50;;;;;;;0.79;96.70;101517.03;5031971;28;20057;-72
2021/10/03 03:10:27;;;;;;;0.50;0.50;;;;;;;0.83;96.86;101521.38;5033390;28;20056;-72
2021/10/03 03:12:52;;;;;;;0.50;0.50;;;;;;;0.85;97.44;101523.06;5016984;28;20073;-74
2021/10/03 03:15:18;;;;;;;0.50;0.50;;;;;;;0.89;96.92;101521.19;5015803;28;20053;-70
2021/10/03 03:17:44;;;;;;;0.50;0.50;;;;;;;0.89;97.26;101522.06;5015289;28;20531;-70
2021/10/03 03:20:10;;;;;;;0.50;0.50;;;;;;;0.85;96.37;101528.41;5015799;28;20140;-70
2021/10/03 03:22:37;;;;;;;0.50;0.50;;;;;;;0.83;96.25;101534.66;5033149;28;20060;-72
2021/10/03 03:25:06;;;;;;;0.50;0.50;;;;;;;0.81;96.34;101525.88;5032638;28;20458;-73
2021/10/03 03:27:31;;;;;;;0.50;0.50;;;;;;;0.83;96.32;101529.34;5031515;28;20532;-71
2021/10/03 03:29:57;;;;;;;0.50;0.50;;;;;;;0.89;96.86;101534.50;5031811;28;20053;-70
2021/10/03 03:32:23;;;;;;;0.50;0.50;;;;;;;0.94;97.28;101532.59;5032236;28;20049;-70
2021/10/03 03:34:49;;;;;;;0.50;0.50;;;;;;;1.00;97.17;101543.06;4971128;28;1232327;-74
2021/10/03 03:37:14;;;;;;;0.50;0.50;;;;;;;1.01;97.23;101544.81;5031884;28;20052;-71
2021/10/03 03:39:40;;;;;;;0.50;0.50;;;;;;;1.02;96.69;101535.88;5033384;28;20421;-73
2021/10/03 03:42:06;;;;;;;0.50;0.50;;;;;;;1.02;96.24;101530.56;5033256;28;20568;-73
2021/10/03 03:44:32;;;;;;;0.50;0.50;;;;;;;1.03;96.31;101536.78;5033701;28;20111;-72
2021/10/03 03:46:59;;;;;;;0.50;0.50;;;;;;;1.01;96.02;101534.16;5032698;28;20056;-71
2021/10/03 03:49:25;;;;;;;0.50;0.50;;;;;;;1.04;95.92;101543.84;5015332;28;20124;-72
2021/10/03 03:51:51;;;;;;;0.50;0.50;;;;;;;1.03;95.92;101537.66;5032592;28;20085;-70
2021/10/03 03:54:17;;;;;;;0.50;0.50;;;;;;;0.95;95.44;101524.56;4998257;28;20103;-72
2021/10/03 03:56:42;;;;;;;0.50;0.50;;;;;;;1.03;94.85;101531.47;5014075;28;20038;-71
2021/10/03 03:59:08;;;;;;;0.50;0.50;;;;;;;1.05;95.46;101532.28;5031082;28;20643;-73
2021/10/03 04:01:34;;;;;;;0.50;0.50;;;;;;;1.09;95.34;101525.94;5028996;28;20072;-71
2021/10/03 04:04:00;;;;;;;0.50;0.50;;;;;;;1.11;95.71;101530.31;5030350;28;20061;-74
2021/10/03 04:06:26;;;;;;;0.50;0.50;;;;;;;1.17;95.44;101527.47;5030585;28;20148;-71
2021/10/03 04:08:51;;;;;;;0.50;0.50;;;;;;;1.24;95.17;101529.94;5030105;28;20493;-72
2021/10/03 04:11:18;;;;;;;0.50;0.50;;;;;;;1.27;95.04;101530.72;5012461;28;20092;-72
2021/10/03 04:13:44;;;;;;;0.50;0.50;;;;;;;1.28;94.77;101526.25;5030473;28;20560;-72
2021/10/03 04:16:10;;;;;;;0.60;0.60;;;;;;;1.30;94.46;101529.75;5012120;28;20132;-74
2021/10/03 04:18:35;;;;;;;0.50;0.50;;;;;;;1.33;94.07;101533.22;5030443;28;20064;-71
2021/10/03 04:21:01;;;;;;;0.50;0.50;;;;;;;1.37;94.03;101531.34;5030383;28;20053;-72
2021/10/03 04:23:27;;;;;;;0.60;0.60;;;;;;;1.37;93.99;101537.53;5012469;28;20111;-71
2021/10/03 04:25:53;;;;;;;0.50;0.50;;;;;;;1.38;94.43;101541.06;5012633;28;20052;-72
2021/10/03 04:28:18;;;;;;;0.50;0.50;;;;;;;1.41;94.22;101538.31;5012250;28;20563;-72
2021/10/03 04:30:44;;;;;;;0.50;0.50;;;;;;;1.31;92.91;101532.38;5012222;28;20116;-73
2021/10/03 04:33:10;;;;;;;0.50;0.50;;;;;;;1.17;92.17;101540.78;5011925;28;20057;-74
2021/10/03 04:35:36;;;;;;;0.60;0.60;;;;;;;1.10;91.72;101539.22;5030623;28;20041;-73
2021/10/03 04:38:02;;;;;;;0.60;0.60;;;;;;;1.13;91.95;101540.91;5028533;28;20511;-71
2021/10/03 04:40:27;;;;;;;0.60;0.60;;;;;;;1.12;92.29;101539.16;5032661;28;20103;-72
2021/10/03 04:42:53;;;;;;;0.60;0.60;;;;;;;1.13;91.92;101539.16;5032552;28;20041;-72
2021/10/03 04:45:19;;;;;;;0.60;0.60;;;;;;;1.19;91.92;101544.28;5033805;28;20049;-73
2021/10/03 04:47:47;;;;;;;0.60;0.60;;;;;;;1.29;91.68;101538.69;5015990;28;20053;-73
2021/10/03 04:50:14;;;;;;;0.60;0.60;;;;;;;1.40;91.78;101544.56;5033984;28;20429;-72
2021/10/03 04:52:40;;;;;;;0.60;0.60;;;;;;;1.46;91.56;101541.69;5033678;28;20092;-72
2021/10/03 04:55:09;;;;;;;0.60;0.60;;;;;;;1.62;91.45;101535.00;5016287;28;20093;-74
2021/10/03 04:57:35;;;;;;;0.60;0.60;;;;;;;1.76;90.60;101539.03;5016095;28;20132;-74
2021/10/03 05:00:06;;;;;;;0.60;0.60;;;;;;;1.86;90.53;101530.66;5032009;28;20058;-76
2021/10/03 05:02:32;;;;;;;0.60;0.60;;;;;;;2.05;90.54;101538.06;5032015;28;20046;-74
2021/10/03 05:04:58;;;;;;;0.60;0.60;;;;;;;2.16;90.27;101538.59;5032269;28;20163;-72
2021/10/03 05:07:24;;;;;;;0.60;0.60;;;;;;;2.27;89.73;101540.91;5033454;28;20371;-71
2021/10/03 05:09:50;;;;;;;0.60;0.60;;;;;;;2.35;89.14;101538.84;5032226;28;20076;-74
2021/10/03 05:12:16;;;;;;;0.60;0.60;;;;;;;2.48;88.80;101542.81;5033452;28;20049;-73
2021/10/03 05:14:41;;;;;;;0.60;0.60;;;;;;;2.69;88.87;101549.22;5016000;28;20080;-75
2021/10/03 05:17:07;;;;;;;0.85;0.85;;;;;;;3.19;88.08;101542.97;5031997;28;20502;-72
2021/10/03 05:19:33;;;;;;;0.70;0.70;;;;;;;3.44;85.62;101554.47;4999078;28;20053;-73
2021/10/03 05:21:59;;;;;;;1.20;1.20;;;;;;;4.13;83.19;101550.84;4999485;28;20060;-73
2021/10/03 05:24:25;;;;;;;1.00;1.00;;;;;;;4.67;79.96;101554.78;5015433;28;20138;-72
2021/10/03 05:26:54;;;;;;;1.00;1.00;;;;;;;5.00;77.75;101547.06;4999419;28;20573;-75
2021/10/03 05:29:19;;;;;;;1.02;1.02;;;;;;;5.93;75.04;101547.25;5015031;28;20156;-72
2021/10/03 05:31:47;;;;;;;1.00;1.00;;;;;;;6.14;73.39;101550.66;5015603;28;20065;-73
2021/10/03 05:34:13;;;;;;;1.00;1.00;;;;;;;6.04;71.96;101545.75;5031568;28;20571;-73
2021/10/03 05:36:39;;;;;;;1.00;1.00;;;;;;;5.97;72.22;101547.00;5014736;28;20132;-74
2021/10/03 05:39:05;;;;;;;0.90;0.90;;;;;;;5.99;71.90;101558.53;5033234;28;20144;-73
2021/10/03 05:41:30;;;;;;;0.80;0.80;;;;;;;5.71;73.05;101552.75;4998877;28;20085;-74
2021/10/03 05:43:57;;;;;;;1.00;1.00;;;;;;;6.41;70.49;101554.66;4999039;28;20161;-76
2021/10/03 05:46:26;;;;;;;0.80;0.80;;;;;;;6.44;69.58;101545.59;5015705;28;20147;-73
2021/10/03 05:48:56;;;;;;;;;;;;;;;6.83;68.82;101552.50;5017241;28;20049;-73
2021/10/03 05:51:22;;;;;;;1.10;1.10;;;;;;;6.90;67.77;101549.44;5048903;28;20454;-76
2021/10/03 05:53:50;;;;;;;1.10;1.10;;;;;;;7.55;65.82;101546.81;5031876;28;20062;-75
2021/10/03 05:56:16;;;;;;;1.10;1.10;;;;;;;7.79;64.93;101544.59;5016796;28;20059;-73
2021/10/03 05:58:42;;;;;;;1.00;1.00;;;;;;;7.94;62.95;101543.72;5016015;28;20057;-78
2021/10/03 06:01:07;;;;;;;1.02;1.02;;;;;;;7.95;62.97;101550.81;5016018;28;20105;-74
2021/10/03 06:03:33;;;;;;;1.00;1.00;;;;;;;7.99;62.95;101556.91;5016674;28;20063;-73
2021/10/03 06:06:02;;;;;;;1.10;1.10;;;;;;;8.34;62.14;101562.94;5033162;28;20053;-72
2021/10/03 06:08:28;;;;;;;1.00;1.00;;;;;;;8.33;61.94;101560.31;4998746;28;20061;-73
2021/10/03 06:10:53;;;;;;;1.00;1.00;;;;;;;8.09;62.67;101551.88;5033676;28;20515;-73
2021/10/03 06:13:19;;;;;;;1.10;1.10;;;;;;;7.98;63.18;101555.16;5015737;28;20112;-76
2021/10/03 06:15:45;;;;;;;0.90;0.90;;;;;;;7.96;63.31;101555.25;5032919;28;20103;-73
2021/10/03 06:18:12;;;;;;;1.00;1.00;;;;;;;9.18;60.45;101557.03;4998830;28;20513;-74
2021/10/03 06:20:39;;;;;;;0.90;0.90;;;;;;;9.02;59.95;101549.00;5014880;28;20130;-72
2021/10/03 06:23:07;;;;;;;1.10;1.10;;;;;;;9.23;59.40;101552.19;5031370;28;20052;-72
2021/10/03 06:25:33;;;;;;;1.10;1.10;;;;;;;10.18;56.34;101554.19;5031214;28;20061;-73
2021/10/03 06:27:59;;;;;;;1.10;1.10;;;;;;;10.00;57.62;101541.88;5030894;28;20065;-73
2021/10/03 06:30:25;;;;;;;1.10;1.10;;;;;;;9.72;57.54;101543.66;5032171;28;20064;-73
2021/10/03 06:32:51;;;;;;;1.05;1.05;;;;;;;9.47;57.76;101547.09;5008754;28;20044;-76
2021/10/03 06:35:17;;;;;;;1.10;1.10;;;;;;;9.55;57.27;101546.63;5013328;28;20136;-77
2021/10/03 06:37:43;;;;;;;1.10;1.10;;;;;;;10.72;55.07;101540.63;5001284;28;20071;-77
2021/10/03 06:40:09;;;;;;;1.20;1.20;;;;;;;10.91;53.46;101539.38;5016015;28;20084;-76
2021/10/03 06:42:35;;;;;;;1.10;1.10;;;;;;;10.53;54.09;101551.84;5002349;28;20068;-72
2021/10/03 06:45:01;;;;;;;1.10;1.10;;;;;;;10.90;53.58;101548.47;5015278;28;20509;-72
2021/10/03 06:47:26;;;;;;;1.20;1.20;;;;;;;11.10;53.44;101553.31;4998641;28;20137;-72
2021/10/03 06:49:52;;;;;;;1.20;1.20;;;;;;;11.10;53.20;101551.47;5010496;28;20171;-72
2021/10/03 06:52:18;;;;;;;1.10;1.10;;;;;;;12.67;49.78;101549.00;5011056;28;20096;-74
2021/10/03 06:54:44;;;;;;;1.20;1.20;;;;;;;11.45;52.02;101549.97;5014419;28;20111;-72
2021/10/03 06:57:13;;;;;;;1.15;1.15;;;;;;;11.03;53.26;101549.31;4997012;28;20177;-72
2021/10/03 06:59:39;;;;;;;1.20;1.20;;;;;;;11.74;51.99;101551.44;5018656;28;20057;-75
2021/10/03 07:02:16;;;;;;;1.10;1.10;;;;;;;12.90;48.60;101547.19;5026352;28;20053;-73
2021/10/03 07:04:42;;;;;;;1.20;1.20;;;;;;;12.07;50.82;101547.25;5009594;28;20062;-73
2021/10/03 07:07:08;;;;;;;1.10;1.10;;;;;;;12.28;50.33;101545.59;5011221;28;20061;-74
2021/10/03 07:09:34;;;;;;;1.10;1.10;;;;;;;11.85;52.09;101552.50;5010993;28;20136;-73
2021/10/03 07:11:59;;;;;;;1.10;1.10;;;;;;;13.31;48.74;101553.09;5012056;28;20499;-73
2021/10/03 07:14:25;;;;;;;1.20;1.20;;;;;;;13.09;48.42;101546.66;5010827;28;20123;-73
2021/10/03 07:16:51;;;;;;;1.10;1.10;;;;;;;13.57;47.40;101541.03;4978047;28;20049;-74
2021/10/03 07:19:17;;;;;;;1.10;1.10;;;;;;;13.73;46.35;101541.50;4993976;28;20057;-74
2021/10/03 07:21:43;;;;;;;1.10;1.10;;;;;;;13.59;46.57;101540.88;5026950;28;20065;-73
2021/10/03 07:24:09;;;;;;;1.10;1.10;;;;;;;13.61;46.79;101541.66;5026771;28;20065;-74
2021/10/03 07:26:34;;;;;;;1.30;1.30;;;;;;;12.98;47.70;101555.63;4993950;28;20052;-73
2021/10/03 07:29:01;;;;;;;1.10;1.10;;;;;;;13.56;47.34;101555.59;4993651;28;20054;-74
2021/10/03 07:31:27;;;;;;;1.20;1.20;;;;;;;14.64;44.52;101544.84;5011230;28;20153;-73
2021/10/03 07:33:53;;;;;;;1.10;1.10;;;;;;;15.71;42.12;101553.69;5010308;28;20149;-73
2021/10/03 07:36:19;;;;;;;1.20;1.20;;;;;;;14.03;44.66;101548.13;4994463;28;20137;-73
2021/10/03 07:38:46;;;;;;;1.10;1.10;;;;;;;13.93;45.34;101548.03;5012539;28;20061;-76
2021/10/03 07:41:12;;;;;;;1.10;1.10;;;;;;;15.09;42.49;101537.28;5013416;28;20489;-75
2021/10/03 07:43:38;;;;;;;1.20;1.20;;;;;;;13.95;45.30;101534.28;5028782;28;20208;-73
2021/10/03 07:46:04;;;;;;;1.30;1.30;;;;;;;14.59;43.83;101539.81;5012324;28;20104;-73
2021/10/03 07:48:29;;;;;;;1.13;1.13;;;;;;;14.44;44.20;101533.78;5009968;28;20102;-73
2021/10/03 07:50:55;;;;;;;1.25;1.25;;;;;;;14.34;44.18;101540.13;5009861;28;20053;-72
2021/10/03 07:53:21;;;;;;;1.20;1.20;;;;;;;15.56;41.50;101534.94;5010745;28;20111;-72
2021/10/03 07:55:46;;;;;;;1.20;1.20;;;;;;;16.32;40.33;101542.63;5006892;28;20053;-73
2021/10/03 07:58:13;;;;;;;1.10;1.10;;;;;;;17.80;37.68;101535.75;5010992;28;20119;-73
2021/10/03 08:00:39;;;;;;;1.10;1.10;;;;;;;17.21;38.07;101534.25;4993385;28;20094;-74
2021/10/03 08:03:05;;;;;;;1.10;1.10;;;;;;;15.92;40.44;101535.38;5010051;28;20068;-73
2021/10/03 08:05:33;;;;;;;1.20;1.20;;;;;;;15.82;40.96;101534.50;4993065;28;20478;-73
2021/10/03 08:08:04;;;;;;;1.10;1.10;;;;;;;17.20;38.35;101540.72;5009506;28;20102;-72
2021/10/03 08:10:30;;;;;;;1.10;1.10;;;;;;;18.63;36.06;101531.00;5009360;28;20354;-73
2021/10/03 08:12:56;;;;;;;1.10;1.10;;;;;;;16.49;39.03;101528.28;5009346;28;20054;-73
2021/10/03 08:15:24;;;;;;;1.10;1.10;;;;;;;16.28;40.04;101533.00;5011981;28;20429;-73
2021/10/03 08:17:50;;;;;;;1.10;1.10;;;;;;;16.60;39.67;101528.13;5014604;28;20053;-73
2021/10/03 08:20:16;;;;;;;1.10;1.10;;;;;;;17.05;38.46;101537.59;5013413;28;20073;-73
2021/10/03 08:22:41;;;;;;;1.10;1.10;;;;;;;18.92;36.07;101529.91;5029564;28;20057;-72
2021/10/03 08:25:08;;;;;;;1.10;1.10;;;;;;;18.38;35.76;101524.44;5013277;28;20054;-72
2021/10/03 08:27:35;;;;;;;1.10;1.10;;;;;;;17.43;38.35;101539.34;5013234;28;20118;-73
2021/10/03 08:30:01;;;;;;;1.00;1.00;;;;;;;17.73;37.26;101526.41;4996939;28;20098;-73
2021/10/03 08:32:28;;;;;;;1.10;1.10;;;;;;;18.44;36.41;101523.81;5012982;28;20061;-73
2021/10/03 08:34:54;;;;;;;1.10;1.10;;;;;;;19.06;35.04;101523.84;5013474;28;20058;-73
2021/10/03 08:37:20;;;;;;;1.02;1.02;;;;;;;17.40;37.74;101522.38;5014977;28;20073;-72
2021/10/03 08:39:45;;;;;;;1.10;1.10;;;;;;;17.54;37.24;101525.47;5013572;28;20058;-74
2021/10/03 08:42:11;;;;;;;1.00;1.00;;;;;;;17.81;36.96;101526.56;5013148;28;20132;-73
2021/10/03 08:44:37;;;;;;;1.00;1.00;;;;;;;18.58;35.57;101524.28;5012859;28;20061;-75
2021/10/03 08:47:04;;;;;;;1.00;1.00;;;;;;;19.01;35.38;101524.34;4996913;28;20090;-74
2021/10/03 08:49:30;;;;;;;1.10;1.10;;;;;;;19.79;34.11;101525.31;5013444;28;20224;-73
2021/10/03 08:51:56;;;;;;;1.00;1.00;;;;;;;20.64;32.13;101526.03;4996640;28;20676;-73
2021/10/03 08:54:22;;;;;;;1.00;1.00;;;;;;;21.67;30.21;101532.59;4996362;28;20064;-73
2021/10/03 08:56:48;;;;;;;0.90;0.90;;;;;;;21.50;29.93;101532.81;5013806;28;20056;-73
2021/10/03 08:59:14;;;;;;;0.80;0.80;;;;;;;21.34;29.57;101534.59;5012662;28;20049;-74
2021/10/03 09:01:54;;;;;;;1.00;1.00;;;;;;;21.18;30.57;101537.34;4996412;28;20539;-74
2021/10/03 09:04:25;;;;;;;0.90;0.90;;;;;;;21.19;30.22;101530.81;5014337;28;20129;-73
2021/10/03 09:07:09;;;;;;;0.90;0.90;;;;;;;20.12;32.03;101523.53;5014117;28;20064;-72
2021/10/03 09:09:55;;;;;;;0.90;0.90;;;;;;;21.98;29.29;101519.91;4996762;28;20077;-73
2021/10/03 09:12:32;;;;;;;0.90;0.90;;;;;;;20.62;30.46;101522.59;5011836;28;20054;-72
2021/10/03 09:15:00;;;;;;;0.90;0.90;;;;;;;18.74;33.55;101524.47;5013784;28;20093;-73
2021/10/03 09:17:28;;;;;;;1.00;1.00;;;;;;;17.69;35.85;101525.00;4996437;28;20071;-73
2021/10/03 09:20:07;;;;;;;1.08;1.08;;;;;;;18.72;34.29;101534.69;5013849;28;20132;-73
2021/10/03 09:23:02;;;;;;;0.90;0.90;;;;;;;20.22;31.89;101527.00;4996342;28;20109;-72
2021/10/03 09:25:47;;;;;;;1.00;1.00;;;;;;;20.92;30.69;101537.56;5013296;28;20064;-74
2021/10/03 09:28:31;;;;;;;0.90;0.90;;;;;;;21.68;29.00;101519.69;5012552;28;20042;-74
2021/10/03 09:31:01;;;;;;;1.00;1.00;;;;;;;22.52;28.26;101515.25;5012426;28;20057;-73
2021/10/03 09:33:55;;;;;;;0.90;0.90;;;;;;;21.38;29.30;101533.19;5012159;28;20058;-75
2021/10/03 09:36:23;;;;;;;1.00;1.00;;;;;;;22.09;28.55;101522.28;5012063;28;20135;-74
2021/10/03 09:39:09;;;;;;;0.90;0.90;;;;;;;21.82;29.02;101524.44;5012147;28;20061;-74
2021/10/03 09:41:39;;;;;;;0.60;0.60;;;;;;;21.57;29.05;101517.31;4995881;28;20065;-73
2021/10/03 09:44:14;;;;;;;0.70;0.70;;;;;;;19.27;32.38;101521.59;5011702;28;20093;-73
2021/10/03 09:46:47;;;;;;;0.90;0.90;;;;;;;19.02;33.25;101523.31;5009048;28;20068;-73
2021/10/03 09:49:16;;;;;;;0.93;0.93;;;;;;;20.34;31.15;101520.16;5026432;28;20310;-72
2021/10/03 09:51:46;;;;;;;0.90;0.90;;;;;;;21.05;29.92;101512.28;5015029;28;20056;-73
2021/10/03 09:54:14;;;;;;;0.70;0.70;;;;;;;20.76;30.44;101519.16;5030672;28;20110;-72
2021/10/03 09:56:40;;;;;;;0.80;0.80;;;;;;;20.12;31.62;101515.28;5010813;28;20107;-73
2021/10/03 09:59:06;;;;;;;0.80;0.80;;;;;;;19.15;32.74;101527.50;5030724;28;20061;-73
2021/10/03 10:01:44;;;;;;;0.90;0.90;;;;;;;19.23;33.02;101516.56;5013486;28;20077;-75
2021/10/03 10:04:18;;;;;;;0.90;0.90;;;;;;;20.93;30.47;101498.88;5010562;28;20053;-72
2021/10/03 10:06:44;;;;;;;0.90;0.90;;;;;;;21.80;29.14;101498.16;5014411;28;20470;-75
2021/10/03 10:09:18;;;;;;;0.80;0.80;;;;;;;21.84;28.77;101497.59;5015290;28;20456;-72
2021/10/03 10:11:47;;;;;;;0.90;0.90;;;;;;;22.56;28.23;101507.50;5012374;28;20065;-73
2021/10/03 10:14:14;;;;;;;0.80;0.80;;;;;;;22.54;27.97;101502.16;5007524;28;20126;-73
2021/10/03 10:16:42;;;;;;;0.80;0.80;;;;;;;22.67;27.78;101506.19;5030355;28;20077;-74
2021/10/03 10:19:27;;;;;;;0.80;0.80;;;;;;;22.36;27.64;101496.97;5050554;28;20051;-74
2021/10/03 10:22:11;;;;;;;0.70;0.70;;;;;;;20.74;29.94;101502.00;5045309;28;20049;-74
2021/10/03 10:24:49;;;;;;;0.70;0.70;;;;;;;21.56;29.32;101488.94;5028217;28;20636;-73
2021/10/03 10:27:20;;;;;;;0.70;0.70;;;;;;;21.42;29.10;101498.78;5045273;28;20049;-78
2021/10/03 10:29:53;;;;;;;0.70;0.70;;;;;;;21.31;28.95;101512.91;5027436;28;20048;-77
2021/10/03 10:32:22;;;;;;;0.70;0.70;;;;;;;21.72;28.81;101488.03;5005792;28;20058;-71
2021/10/03 10:35:07;;;;;;;0.80;0.80;;;;;;;22.00;28.36;101484.78;5028545;28;20053;-74
2021/10/03 10:37:55;;;;;;;0.80;0.80;;;;;;;21.99;28.69;101472.06;5030373;28;20077;-73
2021/10/03 10:40:24;;;;;;;0.70;0.70;;;;;;;22.70;27.66;101492.03;5028998;28;20068;-74
2021/10/03 10:43:03;;;;;;;0.70;0.70;;;;;;;20.99;29.53;101485.47;5028193;28;20153;-72
2021/10/03 10:45:30;;;;;;;0.70;0.70;;;;;;;22.33;28.08;101468.91;5040683;28;20526;-73
2021/10/03 10:48:11;;;;;;;0.70;0.70;;;;;;;22.66;27.98;101480.53;5019055;28;20045;-73
2021/10/03 10:50:49;;;;;;;0.60;0.60;;;;;;;22.01;27.98;101481.84;5047057;28;20056;-73
2021/10/03 10:53:27;;;;;;;0.70;0.70;;;;;;;20.30;30.20;101469.31;5032180;28;20570;-73
2021/10/03 10:56:06;;;;;;;0.70;0.70;;;;;;;19.86;31.45;101466.84;5017151;28;20167;-76
2021/10/03 10:58:33;;;;;;;0.60;0.60;;;;;;;19.32;32.58;101469.00;5031105;28;20378;-73
2021/10/03 11:01:06;;;;;;;0.70;0.70;;;;;;;20.65;30.31;101484.63;5030922;28;20061;-72
2021/10/03 11:04:02;;;;;;;0.70;0.70;;;;;;;21.58;28.98;101469.53;5031413;28;20474;-73
2021/10/03 11:06:31;;;;;;;0.70;0.70;;;;;;;19.48;31.64;101463.56;5027988;28;20150;-73
2021/10/03 11:08:58;;;;;;;0.70;0.70;;;;;;;18.36;33.99;101465.38;5030953;28;20058;-74
2021/10/03 11:11:24;;;;;;;0.70;0.70;;;;;;;18.14;34.33;101451.16;5028080;28;20449;-74
2021/10/03 11:13:55;;;;;;;0.60;0.60;;;;;;;20.19;31.25;101469.66;5012247;28;20421;-73
2021/10/03 11:16:39;;;;;;;0.60;0.60;;;;;;;19.57;31.99;101463.63;5013030;28;20061;-73
2021/10/03 11:19:30;;;;;;;0.50;0.50;;;;;;;20.58;30.68;101461.63;5027915;28;20060;-72
2021/10/03 11:21:58;;;;;;;0.70;0.70;;;;;;;20.53;30.47;101457.69;5027840;28;20132;-73
2021/10/03 11:24:33;;;;;;;0.60;0.60;;;;;;;20.82;29.98;101463.50;5012146;28;20037;-73
2021/10/03 11:26:59;;;;;;;0.50;0.50;;;;;;;21.42;29.31;101463.00;5030696;28;20061;-73
2021/10/03 11:29:30;;;;;;;0.40;0.40;;;;;;;20.78;30.12;101459.38;4988992;28;20049;-75
2021/10/03 11:32:07;;;;;;;0.30;0.30;;;;;;;18.53;33.42;101462.59;5019217;28;20046;-74
2021/10/03 11:34:51;;;;;;;0.20;0.20;;;;;;;17.37;35.33;101463.41;5019884;28;20052;-73